sensor_id;sensor_type;location;lat;lon;timestamp;pressure;altitude;pressure_sealevel;temperature;humidity
5574;BME280;2563;52.242;7.956;2023-06-22T00:00:52;102323.28;;;18.00;100.00
5574;BME280;2563;52.242;7.956;2023-06-22T00:03:18;102302.50;;;17.99;100.00
5574;BME280;2563;52.242;7.956;2023-06-22T00:05:45;102286.84;;;17.99;100.00
5574;BME280;2563;52.242;7.956;2023-06-22T00:08:10;102283.34;;;18.00;100.00
5574;BME280;2563;52.242;7.956;2023-06-22T00:10:36;102270.41;;;17.97;100.00
5574;BME280;2563;52.242;7.956;2023-06-22T00:13:01;102246.94;;;17.98;100.00
5574;BME280;2563;52.242;7.956;2023-06-22T00:15:27;102228.00;;;17.92;100.00
5574;BME280;2563;52.242;7.956;2023-06-22T00:17:52;102209.09;;;17.83;100.00
5574;BME280;2563;52.242;7.956;2023-06-22T00:20:17;102197.13;;;17.76;100.00
5574;BME280;2563;52.242;7.956;2023-06-22T00:22:44;102172.00;;;17.74;100.00
5574;BME280;2563;52.242;7.956;2023-06-22T00:25:09;102145.91;;;17.77;100.00
5574;BME280;2563;52.242;7.956;2023-06-22T00:27:35;102119.03;;;17.75;100.00
5574;BME280;2563;52.242;7.956;2023-06-22T00:30:01;102100.94;;;17.70;100.00
5574;BME280;2563;52.242;7.956;2023-06-22T00:32:27;102088.00;;;17.67;100.00
5574;BME280;2563;52.242;7.956;2023-06-22T00:34:52;102064.69;;;17.62;100.00
5574;BME280;2563;52.242;7.956;2023-06-22T00:37:18;102044.75;;;17.61;100.00
5574;BME280;2563;52.242;7.956;2023-06-22T00:39:43;102037.91;;;17.57;100.00
5574;BME280;2563;52.242;7.956;2023-06-22T00:42:09;102019.78;;;17.54;100.00
5574;BME280;2563;52.242;7.956;2023-06-22T00:44:37;101997.28;;;17.53;100.00
5574;BME280;2563;52.242;7.956;2023-06-22T00:47:03;101987.56;;;17.58;100.00
5574;BME280;2563;52.242;7.956;2023-06-22T00:49:29;101972.75;;;17.60;100.00
5574;BME280;2563;52.242;7.956;2023-06-22T00:51:57;101955.22;;;17.65;100.00
5574;BME280;2563;52.242;7.956;2023-06-22T00:54:22;101930.25;;;17.60;100.00
5574;BME280;2563;52.242;7.956;2023-06-22T00:56:55;101920.97;;;17.51;100.00
5574;BME280;2563;52.242;7.956;2023-06-22T00:59:23;101903.72;;;17.47;100.00
5574;BME280;2563;52.242;7.956;2023-06-22T01:01:48;101884.78;;;17.42;100.00
5574;BME280;2563;52.242;7.956;2023-06-22T01:04:14;101878.88;;;17.37;100.00
5574;BME280;2563;52.242;7.956;2023-06-22T01:06:52;101861.31;;;17.43;100.00
5574;BME280;2563;52.242;7.956;2023-06-22T01:09:22;101848.50;;;17.37;100.00
5574;BME280;2563;52.242;7.956;2023-06-22T01:11:55;101843.44;;;17.33;100.00
5574;BME280;2563;52.242;7.956;2023-06-22T01:14:35;101834.88;;;17.29;100.00
5574;BME280;2563;52.242;7.956;2023-06-22T01:17:05;101814.94;;;17.28;100.00
5574;BME280;2563;52.242;7.956;2023-06-22T01:19:46;101807.91;;;17.32;100.00
5574;BME280;2563;52.242;7.956;2023-06-22T01:22:16;101800.94;;;17.32;100.00
5574;BME280;2563;52.242;7.956;2023-06-22T01:30:29;101781.22;;;17.25;100.00
5574;BME280;2563;52.242;7.956;2023-06-22T01:32:58;101773.41;;;17.25;100.00
5574;BME280;2563;52.242;7.956;2023-06-22T01:35:25;101759.69;;;17.20;100.00
5574;BME280;2563;52.242;7.956;2023-06-22T01:37:50;101757.13;;;17.18;100.00
5574;BME280;2563;52.242;7.956;2023-06-22T01:40:16;101743.53;;;17.10;100.00
5574;BME280;2563;52.242;7.956;2023-06-22T01:42:43;101738.13;;;17.16;100.00
5574;BME280;2563;52.242;7.956;2023-06-22T01:45:09;101736.63;;;17.09;100.00
5574;BME280;2563;52.242;7.956;2023-06-22T01:47:36;101727.09;;;17.10;100.00
5574;BME280;2563;52.242;7.956;2023-06-22T01:50:01;101715.91;;;17.06;100.00
5574;BME280;2563;52.242;7.956;2023-06-22T01:52:27;101713.41;;;17.03;100.00
5574;BME280;2563;52.242;7.956;2023-06-22T01:54:52;101704.13;;;16.96;100.00
5574;BME280;2563;52.242;7.956;2023-06-22T01:57:18;101702.41;;;16.95;100.00
5574;BME280;2563;52.242;7.956;2023-06-22T01:59:52;101691.25;;;16.91;100.00
5574;BME280;2563;52.242;7.956;2023-06-22T02:02:22;100524.63;;;16.89;100.00
5574;BME280;2563;52.242;7.956;2023-06-22T02:04:58;100559.50;;;16.85;100.00
5574;BME280;2563;52.242;7.956;2023-06-22T02:07:29;100542.38;;;16.80;100.00
5574;BME280;2563;52.242;7.956;2023-06-22T02:09:58;100537.38;;;16.76;100.00
5574;BME280;2563;52.242;7.956;2023-06-22T02:12:26;100533.03;;;16.76;100.00
5574;BME280;2563;52.242;7.956;2023-06-22T02:14:53;100514.06;;;16.74;100.00
5574;BME280;2563;52.242;7.956;2023-06-22T02:17:19;100500.31;;;16.72;100.00
5574;BME280;2563;52.242;7.956;2023-06-22T02:19:45;100483.88;;;16.72;100.00
5574;BME280;2563;52.242;7.956;2023-06-22T02:22:11;100467.44;;;16.71;100.00
5574;BME280;2563;52.242;7.956;2023-06-22T02:24:37;100450.84;;;16.74;100.00
5574;BME280;2563;52.242;7.956;2023-06-22T02:27:03;100442.97;;;16.75;100.00
5574;BME280;2563;52.242;7.956;2023-06-22T02:29:29;100446.66;;;16.71;100.00
5574;BME280;2563;52.242;7.956;2023-06-22T02:31:55;100670.31;;;16.68;100.00
5574;BME280;2563;52.242;7.956;2023-06-22T02:34:23;100710.38;;;16.64;100.00
5574;BME280;2563;52.242;7.956;2023-06-22T02:36:49;100644.63;;;16.62;100.00
5574;BME280;2563;52.242;7.956;2023-06-22T02:39:22;100811.88;;;16.61;100.00
5574;BME280;2563;52.242;7.956;2023-06-22T02:41:54;100902.81;;;16.61;100.00
5574;BME280;2563;52.242;7.956;2023-06-22T02:44:20;100927.00;;;16.63;100.00
5574;BME280;2563;52.242;7.956;2023-06-22T02:46:46;100992.75;;;16.65;100.00
5574;BME280;2563;52.242;7.956;2023-06-22T02:49:12;101011.59;;;16.70;100.00
5574;BME280;2563;52.242;7.956;2023-06-22T02:51:41;101081.78;;;16.70;100.00
5574;BME280;2563;52.242;7.956;2023-06-22T02:54:06;101116.56;;;16.68;100.00
5574;BME280;2563;52.242;7.956;2023-06-22T02:56:32;101179.91;;;16.65;100.00
5574;BME280;2563;52.242;7.956;2023-06-22T02:58:57;101185.00;;;16.68;100.00
5574;BME280;2563;52.242;7.956;2023-06-22T03:01:30;101199.56;;;16.72;100.00
5574;BME280;2563;52.242;7.956;2023-06-22T03:04:03;101203.13;;;16.70;100.00
5574;BME280;2563;52.242;7.956;2023-06-22T03:06:29;101196.47;;;16.63;100.00
5574;BME280;2563;52.242;7.956;2023-06-22T03:09:03;101191.34;;;16.61;100.00
5574;BME280;2563;52.242;7.956;2023-06-22T03:11:29;101196.63;;;16.59;100.00
5574;BME280;2563;52.242;7.956;2023-06-22T03:13:55;101190.63;;;16.57;100.00
5574;BME280;2563;52.242;7.956;2023-06-22T03:16:21;101191.63;;;16.53;100.00
5574;BME280;2563;52.242;7.956;2023-06-22T03:18:46;101209.78;;;16.55;100.00
5574;BME280;2563;52.242;7.956;2023-06-22T03:21:11;101208.06;;;16.54;100.00
5574;BME280;2563;52.242;7.956;2023-06-22T03:23:37;101211.72;;;16.50;100.00
5574;BME280;2563;52.242;7.956;2023-06-22T03:26:02;101202.28;;;16.47;100.00
5574;BME280;2563;52.242;7.956;2023-06-22T03:28:29;101209.34;;;16.44;100.00
5574;BME280;2563;52.242;7.956;2023-06-22T03:30:56;101309.72;;;16.46;100.00
5574;BME280;2563;52.242;7.956;2023-06-22T03:33:22;101312.28;;;16.48;100.00
5574;BME280;2563;52.242;7.956;2023-06-22T03:35:47;101327.88;;;16.48;100.00
5574;BME280;2563;52.242;7.956;2023-06-22T03:38:12;101335.00;;;16.43;100.00
5574;BME280;2563;52.242;7.956;2023-06-22T03:40:38;101353.19;;;16.43;100.00
5574;BME280;2563;52.242;7.956;2023-06-22T03:43:03;101371.22;;;16.47;100.00
5574;BME280;2563;52.242;7.956;2023-06-22T03:45:29;101388.53;;;16.47;100.00
5574;BME280;2563;52.242;7.956;2023-06-22T03:47:54;101402.44;;;16.46;100.00
5574;BME280;2563;52.242;7.956;2023-06-22T03:50:19;101424.75;;;16.51;100.00
5574;BME280;2563;52.242;7.956;2023-06-22T03:52:48;101497.50;;;16.53;100.00
5574;BME280;2563;52.242;7.956;2023-06-22T03:55:13;101546.66;;;16.59;100.00
5574;BME280;2563;52.242;7.956;2023-06-22T03:57:39;101609.03;;;16.59;100.00
5574;BME280;2563;52.242;7.956;2023-06-22T04:00:05;101608.06;;;16.63;100.00
5574;BME280;2563;52.242;7.956;2023-06-22T04:02:34;101621.75;;;16.68;100.00
5574;BME280;2563;52.242;7.956;2023-06-22T04:05:00;101634.75;;;16.68;100.00
5574;BME280;2563;52.242;7.956;2023-06-22T04:07:25;101640.75;;;16.70;100.00
5574;BME280;2563;52.242;7.956;2023-06-22T04:09:50;101653.56;;;16.76;100.00
5574;BME280;2563;52.242;7.956;2023-06-22T04:12:16;101667.19;;;16.85;100.00
5574;BME280;2563;52.242;7.956;2023-06-22T04:14:41;101684.81;;;17.03;100.00
5574;BME280;2563;52.242;7.956;2023-06-22T04:17:07;101675.47;;;17.22;100.00
5574;BME280;2563;52.242;7.956;2023-06-22T04:19:32;101692.16;;;17.42;100.00
5574;BME280;2563;52.242;7.956;2023-06-22T04:21:57;101730.78;;;17.54;100.00
5574;BME280;2563;52.242;7.956;2023-06-22T04:24:23;101710.13;;;17.75;100.00
5574;BME280;2563;52.242;7.956;2023-06-22T04:26:48;101702.91;;;17.83;100.00
5574;BME280;2563;52.242;7.956;2023-06-22T04:29:13;101691.47;;;17.87;100.00
5574;BME280;2563;52.242;7.956;2023-06-22T04:31:39;101688.59;;;17.95;100.00
5574;BME280;2563;52.242;7.956;2023-06-22T04:34:05;101698.25;;;18.15;100.00
5574;BME280;2563;52.242;7.956;2023-06-22T04:36:41;101705.84;;;18.44;100.00
5574;BME280;2563;52.242;7.956;2023-06-22T04:39:08;101709.81;;;18.31;100.00
5574;BME280;2563;52.242;7.956;2023-06-22T04:41:38;101713.84;;;18.16;100.00
5574;BME280;2563;52.242;7.956;2023-06-22T04:44:17;101719.38;;;18.31;100.00
5574;BME280;2563;52.242;7.956;2023-06-22T04:46:50;101730.50;;;18.58;100.00
5574;BME280;2563;52.242;7.956;2023-06-22T04:49:20;101729.25;;;18.68;100.00
5574;BME280;2563;52.242;7.956;2023-06-22T04:51:45;101745.78;;;18.90;100.00
5574;BME280;2563;52.242;7.956;2023-06-22T04:54:11;101744.09;;;18.89;100.00
5574;BME280;2563;52.242;7.956;2023-06-22T04:56:36;101757.19;;;18.88;100.00
5574;BME280;2563;52.242;7.956;2023-06-22T04:59:02;101768.47;;;18.88;100.00
5574;BME280;2563;52.242;7.956;2023-06-22T05:01:29;101684.59;;;18.98;100.00
5574;BME280;2563;52.242;7.956;2023-06-22T05:03:56;101703.91;;;18.94;100.00
5574;BME280;2563;52.242;7.956;2023-06-22T05:06:25;101721.41;;;18.91;100.00
5574;BME280;2563;52.242;7.956;2023-06-22T05:08:54;101735.63;;;18.84;100.00
5574;BME280;2563;52.242;7.956;2023-06-22T05:11:27;101758.03;;;18.88;100.00
5574;BME280;2563;52.242;7.956;2023-06-22T05:13:53;101778.66;;;19.17;100.00
5574;BME280;2563;52.242;7.956;2023-06-22T05:16:18;101783.22;;;19.54;100.00
5574;BME280;2563;52.242;7.956;2023-06-22T05:18:52;101801.16;;;19.84;100.00
5574;BME280;2563;52.242;7.956;2023-06-22T05:21:21;101805.13;;;19.92;100.00
5574;BME280;2563;52.242;7.956;2023-06-22T05:23:47;101822.69;;;19.89;100.00
5574;BME280;2563;52.242;7.956;2023-06-22T05:26:12;101838.78;;;20.00;100.00
5574;BME280;2563;52.242;7.956;2023-06-22T05:28:38;101850.44;;;20.32;100.00
5574;BME280;2563;52.242;7.956;2023-06-22T05:31:03;101864.88;;;20.41;100.00
5574;BME280;2563;52.242;7.956;2023-06-22T05:33:29;101877.81;;;20.44;100.00
5574;BME280;2563;52.242;7.956;2023-06-22T05:35:54;101883.81;;;20.46;100.00
5574;BME280;2563;52.242;7.956;2023-06-22T05:38:19;101888.19;;;20.85;100.00
5574;BME280;2563;52.242;7.956;2023-06-22T05:40:45;101892.22;;;20.92;100.00
5574;BME280;2563;52.242;7.956;2023-06-22T05:43:10;101907.50;;;20.82;100.00
5574;BME280;2563;52.242;7.956;2023-06-22T05:45:35;101899.75;;;20.81;100.00
5574;BME280;2563;52.242;7.956;2023-06-22T05:48:01;101903.38;;;20.97;100.00
5574;BME280;2563;52.242;7.956;2023-06-22T05:50:26;101896.47;;;20.95;100.00
5574;BME280;2563;52.242;7.956;2023-06-22T05:52:52;101913.81;;;21.16;100.00
5574;BME280;2563;52.242;7.956;2023-06-22T05:55:17;101923.47;;;21.33;100.00
5574;BME280;2563;52.242;7.956;2023-06-22T05:57:44;101920.13;;;21.31;100.00
5574;BME280;2563;52.242;7.956;2023-06-22T06:00:10;101937.69;;;21.10;100.00
5574;BME280;2563;52.242;7.956;2023-06-22T06:02:36;101952.97;;;21.00;100.00
5574;BME280;2563;52.242;7.956;2023-06-22T06:05:02;101959.63;;;21.08;100.00
5574;BME280;2563;52.242;7.956;2023-06-22T06:07:28;101971.28;;;21.38;100.00
5574;BME280;2563;52.242;7.956;2023-06-22T06:09:54;101989.50;;;21.60;100.00
5574;BME280;2563;52.242;7.956;2023-06-22T06:12:19;102000.00;;;21.41;100.00
5574;BME280;2563;52.242;7.956;2023-06-22T06:14:45;102007.13;;;21.57;100.00
5574;BME280;2563;52.242;7.956;2023-06-22T06:17:10;102032.94;;;21.83;100.00
5574;BME280;2563;52.242;7.956;2023-06-22T06:19:36;102027.66;;;22.02;100.00
5574;BME280;2563;52.242;7.956;2023-06-22T06:22:01;102051.41;;;22.36;100.00
5574;BME280;2563;52.242;7.956;2023-06-22T06:24:26;102052.31;;;22.69;100.00
5574;BME280;2563;52.242;7.956;2023-06-22T06:26:52;102052.56;;;23.00;100.00
5574;BME280;2563;52.242;7.956;2023-06-22T06:29:17;102041.22;;;23.15;100.00
5574;BME280;2563;52.242;7.956;2023-06-22T06:31:42;102040.84;;;23.23;100.00
5574;BME280;2563;52.242;7.956;2023-06-22T06:34:08;102061.38;;;23.64;100.00
5574;BME280;2563;52.242;7.956;2023-06-22T06:36:33;101940.91;;;23.40;100.00
5574;BME280;2563;52.242;7.956;2023-06-22T06:38:58;101951.81;;;23.64;100.00
5574;BME280;2563;52.242;7.956;2023-06-22T06:41:24;101867.19;;;23.11;100.00
5574;BME280;2563;52.242;7.956;2023-06-22T06:43:49;101907.34;;;23.13;100.00
5574;BME280;2563;52.242;7.956;2023-06-22T06:46:15;101915.75;;;23.20;100.00
5574;BME280;2563;52.242;7.956;2023-06-22T06:48:40;101884.47;;;23.16;100.00
5574;BME280;2563;52.242;7.956;2023-06-22T06:51:06;101889.03;;;23.28;100.00
5574;BME280;2563;52.242;7.956;2023-06-22T06:53:35;101949.56;;;23.72;100.00
5574;BME280;2563;52.242;7.956;2023-06-22T06:56:00;101930.16;;;23.75;100.00
5574;BME280;2563;52.242;7.956;2023-06-22T06:58:26;101988.09;;;24.19;100.00
5574;BME280;2563;52.242;7.956;2023-06-22T07:00:51;101973.97;;;24.20;100.00
5574;BME280;2563;52.242;7.956;2023-06-22T07:03:16;101896.03;;;23.89;100.00
5574;BME280;2563;52.242;7.956;2023-06-22T07:05:42;102079.25;;;24.81;100.00
5574;BME280;2563;52.242;7.956;2023-06-22T07:08:07;101935.41;;;24.35;100.00
5574;BME280;2563;52.242;7.956;2023-06-22T07:10:33;101859.09;;;23.76;100.00
5574;BME280;2563;52.242;7.956;2023-06-22T07:12:58;101880.75;;;23.66;100.00
5574;BME280;2563;52.242;7.956;2023-06-22T07:15:24;101875.06;;;23.57;100.00
5574;BME280;2563;52.242;7.956;2023-06-22T07:17:49;101878.22;;;23.48;100.00
5574;BME280;2563;52.242;7.956;2023-06-22T07:20:14;101897.13;;;23.55;100.00
5574;BME280;2563;52.242;7.956;2023-06-22T07:22:42;101904.41;;;23.50;100.00
5574;BME280;2563;52.242;7.956;2023-06-22T07:25:08;101909.75;;;23.48;100.00
5574;BME280;2563;52.242;7.956;2023-06-22T07:28:03;101942.38;;;23.60;100.00
5574;BME280;2563;52.242;7.956;2023-06-22T07:30:30;101920.69;;;23.56;100.00
5574;BME280;2563;52.242;7.956;2023-06-22T07:32:57;101935.53;;;23.57;100.00
5574;BME280;2563;52.242;7.956;2023-06-22T07:35:23;102007.44;;;23.88;100.00
5574;BME280;2563;52.242;7.956;2023-06-22T07:37:48;102011.59;;;23.92;100.00
5574;BME280;2563;52.242;7.956;2023-06-22T07:40:13;102028.19;;;24.09;100.00
5574;BME280;2563;52.242;7.956;2023-06-22T07:42:39;101988.84;;;23.91;100.00
5574;BME280;2563;52.242;7.956;2023-06-22T07:45:05;101985.63;;;23.86;100.00
5574;BME280;2563;52.242;7.956;2023-06-22T07:47:33;102008.00;;;23.93;100.00
5574;BME280;2563;52.242;7.956;2023-06-22T07:50:01;101989.22;;;23.85;100.00
5574;BME280;2563;52.242;7.956;2023-06-22T07:52:30;101973.22;;;23.72;100.00
5574;BME280;2563;52.242;7.956;2023-06-22T07:54:55;101985.38;;;23.75;100.00
5574;BME280;2563;52.242;7.956;2023-06-22T07:57:20;101995.84;;;23.76;100.00
5574;BME280;2563;52.242;7.956;2023-06-22T07:59:46;101964.09;;;23.64;100.00
5574;BME280;2563;52.242;7.956;2023-06-22T08:02:12;101977.31;;;23.62;100.00
5574;BME280;2563;52.242;7.956;2023-06-22T08:04:37;101983.53;;;23.61;100.00
5574;BME280;2563;52.242;7.956;2023-06-22T08:07:03;101976.66;;;23.59;100.00
5574;BME280;2563;52.242;7.956;2023-06-22T08:09:31;101954.53;;;23.47;100.00
5574;BME280;2563;52.242;7.956;2023-06-22T08:11:58;101946.31;;;23.37;100.00
5574;BME280;2563;52.242;7.956;2023-06-22T08:14:25;101961.91;;;23.40;100.00
5574;BME280;2563;52.242;7.956;2023-06-22T08:16:51;101993.53;;;23.54;100.00
5574;BME280;2563;52.242;7.956;2023-06-22T08:19:17;101981.59;;;23.49;100.00
5574;BME280;2563;52.242;7.956;2023-06-22T08:21:43;101988.19;;;23.56;100.00
5574;BME280;2563;52.242;7.956;2023-06-22T08:24:08;101947.06;;;23.39;100.00
5574;BME280;2563;52.242;7.956;2023-06-22T08:26:34;101994.31;;;23.56;100.00
5574;BME280;2563;52.242;7.956;2023-06-22T08:29:04;102035.03;;;23.81;100.00
5574;BME280;2563;52.242;7.956;2023-06-22T08:31:30;102029.69;;;23.83;100.00
5574;BME280;2563;52.242;7.956;2023-06-22T08:33:57;102024.31;;;23.84;100.00
5574;BME280;2563;52.242;7.956;2023-06-22T08:36:22;102008.91;;;23.78;100.00
5574;BME280;2563;52.242;7.956;2023-06-22T08:38:47;101985.91;;;23.66;100.00
5574;BME280;2563;52.242;7.956;2023-06-22T08:41:17;102009.28;;;23.70;100.00
5574;BME280;2563;52.242;7.956;2023-06-22T08:43:43;102006.16;;;23.64;100.00
5574;BME280;2563;52.242;7.956;2023-06-22T08:46:12;101990.84;;;23.56;100.00
5574;BME280;2563;52.242;7.956;2023-06-22T08:48:37;101970.38;;;23.45;100.00
5574;BME280;2563;52.242;7.956;2023-06-22T08:51:04;101977.50;;;23.43;100.00
5574;BME280;2563;52.242;7.956;2023-06-22T08:53:29;102002.34;;;23.53;100.00
5574;BME280;2563;52.242;7.956;2023-06-22T08:55:55;101974.81;;;23.45;100.00
5574;BME280;2563;52.242;7.956;2023-06-22T08:58:20;101986.84;;;23.49;100.00
5574;BME280;2563;52.242;7.956;2023-06-22T09:00:46;101984.28;;;23.47;100.00
5574;BME280;2563;52.242;7.956;2023-06-22T09:03:12;101983.09;;;23.53;100.00
5574;BME280;2563;52.242;7.956;2023-06-22T09:05:37;101966.81;;;23.46;100.00
5574;BME280;2563;52.242;7.956;2023-06-22T09:08:03;101948.84;;;23.39;100.00
5574;BME280;2563;52.242;7.956;2023-06-22T09:10:28;102005.47;;;23.60;100.00
5574;BME280;2563;52.242;7.956;2023-06-22T09:12:54;102036.38;;;23.88;100.00
5574;BME280;2563;52.242;7.956;2023-06-22T09:15:19;102069.09;;;24.14;100.00
5574;BME280;2563;52.242;7.956;2023-06-22T09:17:45;102040.97;;;24.15;100.00
5574;BME280;2563;52.242;7.956;2023-06-22T09:20:11;102056.81;;;24.29;100.00
5574;BME280;2563;52.242;7.956;2023-06-22T09:22:37;102038.13;;;24.34;100.00
5574;BME280;2563;52.242;7.956;2023-06-22T09:25:02;102052.44;;;24.44;100.00
5574;BME280;2563;52.242;7.956;2023-06-22T09:27:28;102067.47;;;24.58;100.00
5574;BME280;2563;52.242;7.956;2023-06-22T09:29:54;102093.53;;;24.77;100.00
5574;BME280;2563;52.242;7.956;2023-06-22T09:32:19;102113.88;;;24.89;100.00
5574;BME280;2563;52.242;7.956;2023-06-22T09:34:45;102103.06;;;24.94;100.00
5574;BME280;2563;52.242;7.956;2023-06-22T09:37:10;102129.25;;;25.11;100.00
5574;BME280;2563;52.242;7.956;2023-06-22T09:39:35;102116.47;;;25.05;100.00
5574;BME280;2563;52.242;7.956;2023-06-22T09:42:02;102090.84;;;24.93;100.00
5574;BME280;2563;52.242;7.956;2023-06-22T09:44:27;102197.84;;;25.40;100.00
5574;BME280;2563;52.242;7.956;2023-06-22T09:46:52;102220.38;;;25.60;100.00
5574;BME280;2563;52.242;7.956;2023-06-22T09:49:18;102169.59;;;25.42;100.00
5574;BME280;2563;52.242;7.956;2023-06-22T09:51:43;102197.09;;;25.52;100.00
5574;BME280;2563;52.242;7.956;2023-06-22T09:54:09;102192.56;;;25.54;100.00
5574;BME280;2563;52.242;7.956;2023-06-22T09:56:34;102174.31;;;25.51;100.00
5574;BME280;2563;52.242;7.956;2023-06-22T09:58:59;102183.72;;;25.55;100.00
5574;BME280;2563;52.242;7.956;2023-06-22T10:01:25;102309.81;;;26.07;100.00
5574;BME280;2563;52.242;7.956;2023-06-22T10:03:52;102291.25;;;26.09;100.00
5574;BME280;2563;52.242;7.956;2023-06-22T10:06:19;102298.66;;;26.17;100.00
5574;BME280;2563;52.242;7.956;2023-06-22T10:08:45;102248.53;;;26.02;100.00
5574;BME280;2563;52.242;7.956;2023-06-22T10:11:10;102285.38;;;26.18;100.00
5574;BME280;2563;52.242;7.956;2023-06-22T10:13:36;102500.50;;;27.27;100.00
5574;BME280;2563;52.242;7.956;2023-06-22T10:16:01;102333.69;;;26.76;100.00
5574;BME280;2563;52.242;7.956;2023-06-22T10:18:26;102292.00;;;26.67;100.00
5574;BME280;2563;52.242;7.956;2023-06-22T10:20:52;102178.44;;;26.25;100.00
5574;BME280;2563;52.242;7.956;2023-06-22T10:23:18;102239.59;;;26.46;100.00
5574;BME280;2563;52.242;7.956;2023-06-22T10:25:44;102190.72;;;26.12;100.00
5574;BME280;2563;52.242;7.956;2023-06-22T10:28:09;102278.94;;;26.37;100.00
5574;BME280;2563;52.242;7.956;2023-06-22T10:30:35;102190.13;;;25.94;100.00
5574;BME280;2563;52.242;7.956;2023-06-22T10:33:00;102229.72;;;25.94;100.00
5574;BME280;2563;52.242;7.956;2023-06-22T10:35:25;102329.03;;;25.95;100.00
5574;BME280;2563;52.242;7.956;2023-06-22T10:37:52;102588.59;;;26.70;100.00
5574;BME280;2563;52.242;7.956;2023-06-22T10:40:18;102634.50;;;26.54;100.00
5574;BME280;2563;52.242;7.956;2023-06-22T10:42:44;102757.34;;;26.77;100.00
5574;BME280;2563;52.242;7.956;2023-06-22T10:45:10;102751.56;;;26.38;100.00
5574;BME280;2563;52.242;7.956;2023-06-22T10:47:36;102627.81;;;25.86;100.00
5574;BME280;2563;52.242;7.956;2023-06-22T10:50:02;102771.00;;;26.37;100.00
5574;BME280;2563;52.242;7.956;2023-06-22T10:52:27;102745.09;;;26.28;100.00
5574;BME280;2563;52.242;7.956;2023-06-22T10:54:52;102809.63;;;26.56;100.00
5574;BME280;2563;52.242;7.956;2023-06-22T10:57:18;102901.09;;;27.06;100.00
5574;BME280;2563;52.242;7.956;2023-06-22T10:59:44;102728.38;;;26.43;100.00
5574;BME280;2563;52.242;7.956;2023-06-22T11:02:09;102685.13;;;26.30;100.00
5574;BME280;2563;52.242;7.956;2023-06-22T11:04:35;102703.44;;;26.33;100.00
5574;BME280;2563;52.242;7.956;2023-06-22T11:07:00;102681.81;;;26.26;100.00
5574;BME280;2563;52.242;7.956;2023-06-22T11:09:26;102790.25;;;26.71;100.00
5574;BME280;2563;52.242;7.956;2023-06-22T11:11:52;102789.75;;;26.80;100.00
5574;BME280;2563;52.242;7.956;2023-06-22T11:14:20;102703.19;;;26.54;100.00
5574;BME280;2563;52.242;7.956;2023-06-22T11:16:46;102767.66;;;26.81;100.00
5574;BME280;2563;52.242;7.956;2023-06-22T11:19:14;102727.63;;;26.73;100.00
5574;BME280;2563;52.242;7.956;2023-06-22T11:21:39;102658.28;;;26.54;100.00
5574;BME280;2563;52.242;7.956;2023-06-22T11:24:05;102644.28;;;26.51;100.00
5574;BME280;2563;52.242;7.956;2023-06-22T11:26:31;102672.31;;;26.70;100.00
5574;BME280;2563;52.242;7.956;2023-06-22T11:29:00;102657.94;;;26.74;100.00
5574;BME280;2563;52.242;7.956;2023-06-22T11:31:26;102572.47;;;26.45;100.00
5574;BME280;2563;52.242;7.956;2023-06-22T11:33:51;102549.53;;;26.45;100.00
5574;BME280;2563;52.242;7.956;2023-06-22T11:36:16;102629.28;;;26.82;100.00
5574;BME280;2563;52.242;7.956;2023-06-22T11:38:42;102585.47;;;26.78;100.00
5574;BME280;2563;52.242;7.956;2023-06-22T11:41:09;102550.56;;;26.73;100.00
5574;BME280;2563;52.242;7.956;2023-06-22T11:43:34;102602.13;;;26.94;100.00
5574;BME280;2563;52.242;7.956;2023-06-22T11:46:01;102419.00;;;26.35;100.00
5574;BME280;2563;52.242;7.956;2023-06-22T11:48:27;102513.38;;;26.76;100.00
5574;BME280;2563;52.242;7.956;2023-06-22T11:50:52;102532.25;;;26.84;100.00
5574;BME280;2563;52.242;7.956;2023-06-22T11:53:20;102391.06;;;26.45;100.00
5574;BME280;2563;52.242;7.956;2023-06-22T11:55:46;102401.19;;;26.53;100.00
5574;BME280;2563;52.242;7.956;2023-06-22T11:58:12;102470.88;;;26.79;100.00
5574;BME280;2563;52.242;7.956;2023-06-22T12:00:37;102510.91;;;27.02;100.00
5574;BME280;2563;52.242;7.956;2023-06-22T12:03:03;102461.06;;;26.95;100.00
5574;BME280;2563;52.242;7.956;2023-06-22T12:05:28;102393.31;;;26.80;100.00
5574;BME280;2563;52.242;7.956;2023-06-22T12:07:54;102386.91;;;26.84;100.00
5574;BME280;2563;52.242;7.956;2023-06-22T12:10:21;102488.97;;;27.28;100.00
5574;BME280;2563;52.242;7.956;2023-06-22T12:12:46;102499.22;;;27.47;100.00
5574;BME280;2563;52.242;7.956;2023-06-22T12:15:12;102460.91;;;27.53;100.00
5574;BME280;2563;52.242;7.956;2023-06-22T12:17:37;102290.38;;;27.19;100.00
5574;BME280;2563;52.242;7.956;2023-06-22T12:20:03;102229.97;;;27.12;100.00
5574;BME280;2563;52.242;7.956;2023-06-22T12:22:34;102155.41;;;26.94;100.00
5574;BME280;2563;52.242;7.956;2023-06-22T12:25:00;102097.25;;;26.69;100.00
5574;BME280;2563;52.242;7.956;2023-06-22T12:27:26;102171.44;;;26.66;100.00
5574;BME280;2563;52.242;7.956;2023-06-22T12:29:52;102251.50;;;26.93;100.00
5574;BME280;2563;52.242;7.956;2023-06-22T12:32:17;102326.94;;;27.12;100.00
5574;BME280;2563;52.242;7.956;2023-06-22T12:34:44;102171.44;;;26.66;100.00
5574;BME280;2563;52.242;7.956;2023-06-22T12:37:10;102200.94;;;26.72;100.00
5574;BME280;2563;52.242;7.956;2023-06-22T12:39:36;102232.97;;;26.81;100.00
5574;BME280;2563;52.242;7.956;2023-06-22T12:42:02;102260.78;;;26.86;100.00
5574;BME280;2563;52.242;7.956;2023-06-22T12:44:27;102220.19;;;26.75;100.00
5574;BME280;2563;52.242;7.956;2023-06-22T12:46:53;102124.44;;;26.44;100.00
5574;BME280;2563;52.242;7.956;2023-06-22T12:49:18;102170.22;;;26.57;100.00
5574;BME280;2563;52.242;7.956;2023-06-22T12:51:44;102156.66;;;26.49;100.00
5574;BME280;2563;52.242;7.956;2023-06-22T12:54:10;102132.44;;;26.42;100.00
5574;BME280;2563;52.242;7.956;2023-06-22T12:56:37;102119.84;;;26.33;100.00
5574;BME280;2563;52.242;7.956;2023-06-22T12:59:03;102012.50;;;26.06;100.00
5574;BME280;2563;52.242;7.956;2023-06-22T13:01:29;102040.41;;;26.10;100.00